sensor_id;sensor_type;location;lat;lon;timestamp;P1;durP1;ratioP1;P2;durP2;ratioP2
75823;SDS011;64457;51.976;9.834;2023-04-03T00:02:19;16.17;;;2.40;;
75823;SDS011;64457;51.976;9.834;2023-04-03T00:04:47;7.23;;;2.00;;
75823;SDS011;64457;51.976;9.834;2023-04-03T00:07:14;9.40;;;2.23;;
75823;SDS011;64457;51.976;9.834;2023-04-03T00:09:43;6.40;;;2.23;;
75823;SDS011;64457;51.976;9.834;2023-04-03T00:12:11;15.37;;;2.50;;
75823;SDS011;64457;51.976;9.834;2023-04-03T00:14:38;6.53;;;2.00;;
75823;SDS011;64457;51.976;9.834;2023-04-03T00:17:09;8.93;;;1.87;;
75823;SDS011;64457;51.976;9.834;2023-04-03T00:19:37;9.73;;;2.40;;
75823;SDS011;64457;51.976;9.834;2023-04-03T00:22:05;9.90;;;2.10;;
75823;SDS011;64457;51.976;9.834;2023-04-03T00:24:40;6.50;;;2.13;;
75823;SDS011;64457;51.976;9.834;2023-04-03T00:27:10;11.57;;;2.40;;
75823;SDS011;64457;51.976;9.834;2023-04-03T00:29:37;7.30;;;2.10;;
75823;SDS011;64457;51.976;9.834;2023-04-03T00:32:05;12.70;;;2.17;;
75823;SDS011;64457;51.976;9.834;2023-04-03T00:34:32;11.23;;;1.87;;
75823;SDS011;64457;51.976;9.834;2023-04-03T00:36:59;9.63;;;1.90;;
75823;SDS011;64457;51.976;9.834;2023-04-03T00:39:27;8.67;;;1.50;;
75823;SDS011;64457;51.976;9.834;2023-04-03T00:41:55;8.37;;;1.67;;
75823;SDS011;64457;51.976;9.834;2023-04-03T00:47:52;7.43;;;1.80;;
75823;SDS011;64457;51.976;9.834;2023-04-03T00:50:19;6.17;;;2.07;;
75823;SDS011;64457;51.976;9.834;2023-04-03T00:52:47;7.97;;;1.80;;
75823;SDS011;64457;51.976;9.834;2023-04-03T00:55:15;10.30;;;1.83;;
75823;SDS011;64457;51.976;9.834;2023-04-03T00:57:44;5.87;;;1.70;;
75823;SDS011;64457;51.976;9.834;2023-04-03T01:00:13;9.63;;;1.87;;
75823;SDS011;64457;51.976;9.834;2023-04-03T01:02:46;6.40;;;1.80;;
75823;SDS011;64457;51.976;9.834;2023-04-03T01:05:13;5.73;;;1.30;;
75823;SDS011;64457;51.976;9.834;2023-04-03T01:07:44;9.03;;;1.90;;
75823;SDS011;64457;51.976;9.834;2023-04-03T01:10:14;5.90;;;1.47;;
75823;SDS011;64457;51.976;9.834;2023-04-03T01:12:45;8.97;;;1.97;;
75823;SDS011;64457;51.976;9.834;2023-04-03T01:15:15;8.43;;;1.90;;
75823;SDS011;64457;51.976;9.834;2023-04-03T01:17:48;9.37;;;1.97;;
75823;SDS011;64457;51.976;9.834;2023-04-03T01:20:31;8.10;;;2.07;;
75823;SDS011;64457;51.976;9.834;2023-04-03T01:23:59;10.37;;;2.77;;
75823;SDS011;64457;51.976;9.834;2023-04-03T01:26:41;8.13;;;1.77;;
75823;SDS011;64457;51.976;9.834;2023-04-03T01:29:09;7.77;;;1.80;;
75823;SDS011;64457;51.976;9.834;2023-04-03T01:34:23;7.40;;;2.30;;
75823;SDS011;64457;51.976;9.834;2023-04-03T01:36:51;8.13;;;1.87;;
75823;SDS011;64457;51.976;9.834;2023-04-03T01:39:19;7.47;;;1.80;;
75823;SDS011;64457;51.976;9.834;2023-04-03T01:41:48;12.27;;;1.90;;
75823;SDS011;64457;51.976;9.834;2023-04-03T01:44:17;5.90;;;1.90;;
75823;SDS011;64457;51.976;9.834;2023-04-03T01:46:45;9.90;;;1.83;;
75823;SDS011;64457;51.976;9.834;2023-04-03T01:49:15;7.10;;;2.03;;
75823;SDS011;64457;51.976;9.834;2023-04-03T01:51:43;9.80;;;2.00;;
75823;SDS011;64457;51.976;9.834;2023-04-03T01:54:13;8.30;;;2.00;;
75823;SDS011;64457;51.976;9.834;2023-04-03T01:56:42;11.75;;;3.10;;
75823;SDS011;64457;51.976;9.834;2023-04-03T01:59:10;6.93;;;1.80;;
75823;SDS011;64457;51.976;9.834;2023-04-03T02:01:37;6.83;;;2.03;;
75823;SDS011;64457;51.976;9.834;2023-04-03T02:04:05;8.63;;;2.13;;
75823;SDS011;64457;51.976;9.834;2023-04-03T02:06:35;9.47;;;1.70;;
75823;SDS011;64457;51.976;9.834;2023-04-03T02:09:02;9.00;;;2.10;;
75823;SDS011;64457;51.976;9.834;2023-04-03T02:11:31;7.88;;;2.20;;
75823;SDS011;64457;51.976;9.834;2023-04-03T02:13:58;9.80;;;1.92;;
75823;SDS011;64457;51.976;9.834;2023-04-03T02:16:25;7.55;;;2.67;;
75823;SDS011;64457;51.976;9.834;2023-04-03T02:18:54;9.35;;;2.30;;
75823;SDS011;64457;51.976;9.834;2023-04-03T02:21:21;6.72;;;2.20;;
75823;SDS011;64457;51.976;9.834;2023-04-03T02:23:51;8.93;;;2.35;;
75823;SDS011;64457;51.976;9.834;2023-04-03T02:26:19;6.67;;;2.37;;
75823;SDS011;64457;51.976;9.834;2023-04-03T02:28:47;12.33;;;2.73;;
75823;SDS011;64457;51.976;9.834;2023-04-03T02:31:15;7.10;;;1.97;;
75823;SDS011;64457;51.976;9.834;2023-04-03T02:33:42;6.63;;;2.20;;
75823;SDS011;64457;51.976;9.834;2023-04-03T02:36:11;12.67;;;2.93;;
75823;SDS011;64457;51.976;9.834;2023-04-03T02:38:42;12.38;;;3.80;;
75823;SDS011;64457;51.976;9.834;2023-04-03T02:41:12;13.40;;;3.10;;
75823;SDS011;64457;51.976;9.834;2023-04-03T02:43:40;14.40;;;4.20;;
75823;SDS011;64457;51.976;9.834;2023-04-03T02:46:08;11.43;;;3.63;;
75823;SDS011;64457;51.976;9.834;2023-04-03T02:48:35;15.18;;;3.53;;
75823;SDS011;64457;51.976;9.834;2023-04-03T02:51:04;8.43;;;3.13;;
75823;SDS011;64457;51.976;9.834;2023-04-03T02:53:31;12.52;;;2.97;;
75823;SDS011;64457;51.976;9.834;2023-04-03T02:55:59;11.43;;;3.30;;
75823;SDS011;64457;51.976;9.834;2023-04-03T02:58:29;11.77;;;3.70;;
75823;SDS011;64457;51.976;9.834;2023-04-03T03:00:56;8.02;;;2.88;;
75823;SDS011;64457;51.976;9.834;2023-04-03T03:03:24;7.70;;;2.90;;
75823;SDS011;64457;51.976;9.834;2023-04-03T03:06:00;18.92;;;3.63;;
75823;SDS011;64457;51.976;9.834;2023-04-03T03:08:29;11.30;;;3.67;;
75823;SDS011;64457;51.976;9.834;2023-04-03T03:10:56;13.23;;;3.40;;
75823;SDS011;64457;51.976;9.834;2023-04-03T03:13:24;8.43;;;3.30;;
75823;SDS011;64457;51.976;9.834;2023-04-03T03:15:53;18.03;;;3.50;;
75823;SDS011;64457;51.976;9.834;2023-04-03T03:18:21;6.57;;;2.85;;
75823;SDS011;64457;51.976;9.834;2023-04-03T03:20:50;15.30;;;3.00;;
75823;SDS011;64457;51.976;9.834;2023-04-03T03:23:18;8.18;;;2.95;;
75823;SDS011;64457;51.976;9.834;2023-04-03T03:25:47;10.43;;;2.80;;
75823;SDS011;64457;51.976;9.834;2023-04-03T03:28:14;14.38;;;3.40;;
75823;SDS011;64457;51.976;9.834;2023-04-03T03:30:42;10.90;;;2.75;;
75823;SDS011;64457;51.976;9.834;2023-04-03T03:33:11;9.43;;;2.75;;
75823;SDS011;64457;51.976;9.834;2023-04-03T03:35:39;10.17;;;3.30;;
75823;SDS011;64457;51.976;9.834;2023-04-03T03:38:07;10.52;;;3.10;;
75823;SDS011;64457;51.976;9.834;2023-04-03T03:40:34;9.13;;;3.30;;
75823;SDS011;64457;51.976;9.834;2023-04-03T03:43:03;8.63;;;3.60;;
75823;SDS011;64457;51.976;9.834;2023-04-03T03:45:31;12.65;;;2.85;;
75823;SDS011;64457;51.976;9.834;2023-04-03T03:47:59;11.15;;;2.90;;
75823;SDS011;64457;51.976;9.834;2023-04-03T03:50:28;12.93;;;3.22;;
75823;SDS011;64457;51.976;9.834;2023-04-03T03:52:56;11.63;;;3.50;;
75823;SDS011;64457;51.976;9.834;2023-04-03T03:55:24;20.05;;;3.45;;
75823;SDS011;64457;51.976;9.834;2023-04-03T03:57:55;9.77;;;3.70;;
75823;SDS011;64457;51.976;9.834;2023-04-03T04:00:22;9.65;;;3.00;;
75823;SDS011;64457;51.976;9.834;2023-04-03T04:02:50;12.98;;;3.53;;
75823;SDS011;64457;51.976;9.834;2023-04-03T04:05:18;9.43;;;3.10;;
75823;SDS011;64457;51.976;9.834;2023-04-03T04:07:47;9.93;;;3.05;;
75823;SDS011;64457;51.976;9.834;2023-04-03T04:10:14;13.40;;;3.58;;
75823;SDS011;64457;51.976;9.834;2023-04-03T04:12:42;14.77;;;3.50;;
75823;SDS011;64457;51.976;9.834;2023-04-03T04:15:10;19.92;;;3.40;;
75823;SDS011;64457;51.976;9.834;2023-04-03T04:17:38;9.20;;;3.10;;
75823;SDS011;64457;51.976;9.834;2023-04-03T04:20:06;12.40;;;3.75;;
75823;SDS011;64457;51.976;9.834;2023-04-03T04:22:34;8.15;;;3.60;;
75823;SDS011;64457;51.976;9.834;2023-04-03T04:25:03;13.43;;;3.72;;
75823;SDS011;64457;51.976;9.834;2023-04-03T04:27:32;8.43;;;3.22;;
75823;SDS011;64457;51.976;9.834;2023-04-03T04:29:59;7.93;;;3.30;;
75823;SDS011;64457;51.976;9.834;2023-04-03T04:32:28;9.20;;;3.35;;
75823;SDS011;64457;51.976;9.834;2023-04-03T04:34:56;18.35;;;3.10;;
75823;SDS011;64457;51.976;9.834;2023-04-03T04:37:23;12.68;;;3.38;;
75823;SDS011;64457;51.976;9.834;2023-04-03T04:39:51;14.15;;;4.40;;
75823;SDS011;64457;51.976;9.834;2023-04-03T04:42:20;11.00;;;3.67;;
75823;SDS011;64457;51.976;9.834;2023-04-03T04:44:48;20.58;;;4.63;;
75823;SDS011;64457;51.976;9.834;2023-04-03T04:47:15;18.85;;;3.25;;
75823;SDS011;64457;51.976;9.834;2023-04-03T04:49:43;13.25;;;3.67;;
75823;SDS011;64457;51.976;9.834;2023-04-03T04:52:12;13.13;;;3.63;;
75823;SDS011;64457;51.976;9.834;2023-04-03T04:54:40;13.35;;;3.67;;
75823;SDS011;64457;51.976;9.834;2023-04-03T04:57:08;8.75;;;3.30;;
75823;SDS011;64457;51.976;9.834;2023-04-03T04:59:38;11.82;;;3.45;;
75823;SDS011;64457;51.976;9.834;2023-04-03T05:02:06;9.93;;;3.28;;
75823;SDS011;64457;51.976;9.834;2023-04-03T05:04:33;10.75;;;3.30;;
75823;SDS011;64457;51.976;9.834;2023-04-03T05:07:01;15.15;;;3.42;;
75823;SDS011;64457;51.976;9.834;2023-04-03T05:09:29;11.43;;;3.25;;
75823;SDS011;64457;51.976;9.834;2023-04-03T05:11:56;10.13;;;3.97;;
75823;SDS011;64457;51.976;9.834;2023-04-03T05:14:25;9.80;;;3.38;;
75823;SDS011;64457;51.976;9.834;2023-04-03T05:16:54;10.48;;;3.78;;
75823;SDS011;64457;51.976;9.834;2023-04-03T05:19:21;11.00;;;3.28;;
75823;SDS011;64457;51.976;9.834;2023-04-03T05:21:48;9.80;;;3.88;;
75823;SDS011;64457;51.976;9.834;2023-04-03T05:24:16;13.60;;;4.30;;
75823;SDS011;64457;51.976;9.834;2023-04-03T05:26:44;21.77;;;4.18;;
75823;SDS011;64457;51.976;9.834;2023-04-03T05:29:12;11.20;;;3.50;;
75823;SDS011;64457;51.976;9.834;2023-04-03T05:31:42;11.40;;;3.67;;
75823;SDS011;64457;51.976;9.834;2023-04-03T05:34:11;8.65;;;3.10;;
75823;SDS011;64457;51.976;9.834;2023-04-03T05:36:39;13.63;;;4.22;;
75823;SDS011;64457;51.976;9.834;2023-04-03T05:39:06;10.35;;;3.70;;
75823;SDS011;64457;51.976;9.834;2023-04-03T05:41:35;10.65;;;3.95;;
75823;SDS011;64457;51.976;9.834;2023-04-03T05:44:03;13.68;;;4.05;;
75823;SDS011;64457;51.976;9.834;2023-04-03T05:46:31;11.05;;;4.07;;
75823;SDS011;64457;51.976;9.834;2023-04-03T05:48:58;10.50;;;3.60;;
75823;SDS011;64457;51.976;9.834;2023-04-03T05:51:29;11.48;;;4.35;;
75823;SDS011;64457;51.976;9.834;2023-04-03T05:54:01;13.13;;;6.22;;
75823;SDS011;64457;51.976;9.834;2023-04-03T05:56:35;19.20;;;7.88;;
75823;SDS011;64457;51.976;9.834;2023-04-03T05:59:04;26.23;;;7.28;;
75823;SDS011;64457;51.976;9.834;2023-04-03T06:01:32;17.60;;;7.43;;
75823;SDS011;64457;51.976;9.834;2023-04-03T06:04:00;15.40;;;6.60;;
75823;SDS011;64457;51.976;9.834;2023-04-03T06:09:13;23.52;;;9.18;;
75823;SDS011;64457;51.976;9.834;2023-04-03T06:11:44;15.02;;;6.10;;
75823;SDS011;64457;51.976;9.834;2023-04-03T06:14:15;12.77;;;5.40;;
75823;SDS011;64457;51.976;9.834;2023-04-03T06:16:42;17.77;;;6.87;;
75823;SDS011;64457;51.976;9.834;2023-04-03T06:19:11;10.30;;;5.60;;
75823;SDS011;64457;51.976;9.834;2023-04-03T06:21:39;10.47;;;4.37;;
75823;SDS011;64457;51.976;9.834;2023-04-03T06:24:09;15.33;;;5.67;;
75823;SDS011;64457;51.976;9.834;2023-04-03T06:26:40;21.90;;;5.37;;
75823;SDS011;64457;51.976;9.834;2023-04-03T06:29:08;11.13;;;3.80;;
75823;SDS011;64457;51.976;9.834;2023-04-03T06:31:36;9.40;;;2.50;;
75823;SDS011;64457;51.976;9.834;2023-04-03T06:34:04;8.60;;;2.50;;
75823;SDS011;64457;51.976;9.834;2023-04-03T06:36:32;9.60;;;2.30;;
75823;SDS011;64457;51.976;9.834;2023-04-03T06:39:00;9.33;;;2.43;;
75823;SDS011;64457;51.976;9.834;2023-04-03T06:41:29;14.33;;;2.23;;
75823;SDS011;64457;51.976;9.834;2023-04-03T06:43:57;8.63;;;1.90;;
75823;SDS011;64457;51.976;9.834;2023-04-03T06:46:28;8.97;;;2.37;;
75823;SDS011;64457;51.976;9.834;2023-04-03T06:48:56;8.43;;;1.90;;
75823;SDS011;64457;51.976;9.834;2023-04-03T06:51:24;9.77;;;2.50;;
75823;SDS011;64457;51.976;9.834;2023-04-03T06:53:54;10.00;;;1.90;;
75823;SDS011;64457;51.976;9.834;2023-04-03T06:56:24;11.17;;;1.97;;
75823;SDS011;64457;51.976;9.834;2023-04-03T06:58:54;6.27;;;1.73;;
75823;SDS011;64457;51.976;9.834;2023-04-03T07:01:23;10.27;;;2.17;;
75823;SDS011;64457;51.976;9.834;2023-04-03T07:03:53;10.23;;;2.40;;
75823;SDS011;64457;51.976;9.834;2023-04-03T07:06:21;7.97;;;1.73;;
75823;SDS011;64457;51.976;9.834;2023-04-03T07:08:52;15.70;;;2.87;;
75823;SDS011;64457;51.976;9.834;2023-04-03T07:11:20;12.50;;;2.10;;
75823;SDS011;64457;51.976;9.834;2023-04-03T07:13:47;8.03;;;1.80;;
75823;SDS011;64457;51.976;9.834;2023-04-03T07:16:17;6.83;;;2.00;;
75823;SDS011;64457;51.976;9.834;2023-04-03T07:18:45;8.97;;;1.90;;
75823;SDS011;64457;51.976;9.834;2023-04-03T07:21:16;9.20;;;2.03;;
75823;SDS011;64457;51.976;9.834;2023-04-03T07:23:44;7.77;;;2.07;;
75823;SDS011;64457;51.976;9.834;2023-04-03T07:26:12;7.10;;;1.60;;
75823;SDS011;64457;51.976;9.834;2023-04-03T07:28:43;8.50;;;2.00;;
75823;SDS011;64457;51.976;9.834;2023-04-03T07:31:12;10.43;;;1.83;;
75823;SDS011;64457;51.976;9.834;2023-04-03T07:33:44;7.93;;;1.53;;
75823;SDS011;64457;51.976;9.834;2023-04-03T07:36:14;7.20;;;1.40;;
75823;SDS011;64457;51.976;9.834;2023-04-03T07:38:44;9.53;;;1.60;;
75823;SDS011;64457;51.976;9.834;2023-04-03T07:41:13;8.70;;;1.50;;
75823;SDS011;64457;51.976;9.834;2023-04-03T07:43:43;8.47;;;1.67;;
75823;SDS011;64457;51.976;9.834;2023-04-03T07:46:11;7.33;;;1.40;;
75823;SDS011;64457;51.976;9.834;2023-04-03T07:48:41;10.07;;;2.27;;
75823;SDS011;64457;51.976;9.834;2023-04-03T07:51:09;9.70;;;1.47;;
75823;SDS011;64457;51.976;9.834;2023-04-03T07:53:38;9.27;;;1.67;;
75823;SDS011;64457;51.976;9.834;2023-04-03T07:56:05;7.63;;;1.30;;
75823;SDS011;64457;51.976;9.834;2023-04-03T07:58:34;8.80;;;1.47;;
75823;SDS011;64457;51.976;9.834;2023-04-03T08:01:03;7.30;;;1.47;;
75823;SDS011;64457;51.976;9.834;2023-04-03T08:03:31;7.37;;;1.60;;
75823;SDS011;64457;51.976;9.834;2023-04-03T08:06:05;11.40;;;2.03;;
75823;SDS011;64457;51.976;9.834;2023-04-03T08:08:34;6.90;;;1.47;;
75823;SDS011;64457;51.976;9.834;2023-04-03T08:11:03;9.40;;;1.73;;
75823;SDS011;64457;51.976;9.834;2023-04-03T08:13:31;7.43;;;1.60;;
75823;SDS011;64457;51.976;9.834;2023-04-03T08:16:06;5.70;;;1.10;;
75823;SDS011;64457;51.976;9.834;2023-04-03T08:18:37;8.00;;;1.40;;
75823;SDS011;64457;51.976;9.834;2023-04-03T08:21:08;7.97;;;1.53;;
75823;SDS011;64457;51.976;9.834;2023-04-03T08:23:37;10.43;;;1.53;;
75823;SDS011;64457;51.976;9.834;2023-04-03T08:26:08;7.90;;;1.50;;
75823;SDS011;64457;51.976;9.834;2023-04-03T08:28:37;8.47;;;1.00;;
75823;SDS011;64457;51.976;9.834;2023-04-03T08:31:06;6.73;;;1.20;;
75823;SDS011;64457;51.976;9.834;2023-04-03T08:33:40;8.07;;;1.20;;
75823;SDS011;64457;51.976;9.834;2023-04-03T08:36:17;9.27;;;1.53;;
75823;SDS011;64457;51.976;9.834;2023-04-03T08:38:47;12.13;;;1.47;;
75823;SDS011;64457;51.976;9.834;2023-04-03T08:41:19;6.50;;;1.10;;
75823;SDS011;64457;51.976;9.834;2023-04-03T08:43:58;8.60;;;1.30;;
75823;SDS011;64457;51.976;9.834;2023-04-03T08:46:40;8.77;;;1.33;;
75823;SDS011;64457;51.976;9.834;2023-04-03T08:49:23;8.23;;;1.20;;
75823;SDS011;64457;51.976;9.834;2023-04-03T08:51:59;8.27;;;1.60;;
75823;SDS011;64457;51.976;9.834;2023-04-03T08:54:32;6.93;;;1.30;;
75823;SDS011;64457;51.976;9.834;2023-04-03T08:57:04;8.03;;;1.43;;
75823;SDS011;64457;51.976;9.834;2023-04-03T08:59:33;9.23;;;1.60;;
75823;SDS011;64457;51.976;9.834;2023-04-03T09:02:12;11.83;;;1.73;;
75823;SDS011;64457;51.976;9.834;2023-04-03T09:04:55;7.80;;;1.50;;
75823;SDS011;64457;51.976;9.834;2023-04-03T09:07:31;8.07;;;1.30;;
75823;SDS011;64457;51.976;9.834;2023-04-03T09:10:08;7.37;;;1.40;;
75823;SDS011;64457;51.976;9.834;2023-04-03T09:12:41;8.10;;;1.67;;
75823;SDS011;64457;51.976;9.834;2023-04-03T09:15:16;6.27;;;1.03;;
75823;SDS011;64457;51.976;9.834;2023-04-03T09:17:49;7.53;;;1.30;;
75823;SDS011;64457;51.976;9.834;2023-04-03T09:20:30;6.77;;;1.60;;
75823;SDS011;64457;51.976;9.834;2023-04-03T09:23:26;6.80;;;1.33;;
75823;SDS011;64457;51.976;9.834;2023-04-03T09:25:58;10.50;;;1.53;;
75823;SDS011;64457;51.976;9.834;2023-04-03T09:28:34;9.00;;;2.37;;
75823;SDS011;64457;51.976;9.834;2023-04-03T09:31:11;8.73;;;1.83;;
75823;SDS011;64457;51.976;9.834;2023-04-03T09:33:46;11.20;;;2.10;;
75823;SDS011;64457;51.976;9.834;2023-04-03T09:39:13;10.83;;;1.90;;
75823;SDS011;64457;51.976;9.834;2023-04-03T09:41:43;7.80;;;1.60;;
75823;SDS011;64457;51.976;9.834;2023-04-03T09:44:25;8.30;;;1.50;;
75823;SDS011;64457;51.976;9.834;2023-04-03T09:46:56;6.50;;;1.47;;
75823;SDS011;64457;51.976;9.834;2023-04-03T09:49:24;6.20;;;1.30;;
75823;SDS011;64457;51.976;9.834;2023-04-03T09:51:52;6.10;;;1.40;;
75823;SDS011;64457;51.976;9.834;2023-04-03T09:54:29;7.60;;;1.53;;
75823;SDS011;64457;51.976;9.834;2023-04-03T09:57:02;6.90;;;1.10;;
75823;SDS011;64457;51.976;9.834;2023-04-03T09:59:45;6.80;;;1.30;;
75823;SDS011;64457;51.976;9.834;2023-04-03T10:02:32;9.27;;;1.30;;
75823;SDS011;64457;51.976;9.834;2023-04-03T10:05:03;7.23;;;2.13;;
75823;SDS011;64457;51.976;9.834;2023-04-03T10:07:33;8.23;;;1.80;;
75823;SDS011;64457;51.976;9.834;2023-04-03T10:10:16;6.87;;;1.43;;
75823;SDS011;64457;51.976;9.834;2023-04-03T10:12:48;6.30;;;1.30;;
75823;SDS011;64457;51.976;9.834;2023-04-03T10:15:17;6.70;;;1.30;;
75823;SDS011;64457;51.976;9.834;2023-04-03T10:17:50;8.17;;;2.20;;
75823;SDS011;64457;51.976;9.834;2023-04-03T10:20:30;6.37;;;1.60;;
75823;SDS011;64457;51.976;9.834;2023-04-03T10:23:13;10.70;;;2.70;;
75823;SDS011;64457;51.976;9.834;2023-04-03T10:25:49;7.47;;;1.60;;
75823;SDS011;64457;51.976;9.834;2023-04-03T10:28:31;6.53;;;1.27;;
75823;SDS011;64457;51.976;9.834;2023-04-03T10:31:10;5.40;;;1.40;;
75823;SDS011;64457;51.976;9.834;2023-04-03T10:33:50;5.43;;;1.33;;
75823;SDS011;64457;51.976;9.834;2023-04-03T10:36:29;8.00;;;1.87;;
75823;SDS011;64457;51.976;9.834;2023-04-03T10:39:12;8.03;;;1.33;;
75823;SDS011;64457;51.976;9.834;2023-04-03T10:41:54;7.80;;;1.73;;
75823;SDS011;64457;51.976;9.834;2023-04-03T10:44:31;7.03;;;1.80;;
75823;SDS011;64457;51.976;9.834;2023-04-03T10:47:10;7.00;;;1.20;;
75823;SDS011;64457;51.976;9.834;2023-04-03T10:49:47;6.60;;;1.47;;
75823;SDS011;64457;51.976;9.834;2023-04-03T10:52:25;7.40;;;1.27;;
75823;SDS011;64457;51.976;9.834;2023-04-03T10:55:04;8.30;;;1.87;;
75823;SDS011;64457;51.976;9.834;2023-04-03T10:57:51;7.43;;;1.20;;
75823;SDS011;64457;51.976;9.834;2023-04-03T11:00:22;7.17;;;1.40;;
75823;SDS011;64457;51.976;9.834;2023-04-03T11:03:03;9.33;;;1.10;;
75823;SDS011;64457;51.976;9.834;2023-04-03T11:05:39;9.53;;;1.40;;
75823;SDS011;64457;51.976;9.834;2023-04-03T11:08:13;5.23;;;1.50;;
75823;SDS011;64457;51.976;9.834;2023-04-03T11:10:51;4.70;;;1.17;;
75823;SDS011;64457;51.976;9.834;2023-04-03T11:13:25;4.40;;;1.20;;
75823;SDS011;64457;51.976;9.834;2023-04-03T11:15:59;5.87;;;1.40;;
75823;SDS011;64457;51.976;9.834;2023-04-03T11:18:28;8.00;;;1.77;;
75823;SDS011;64457;51.976;9.834;2023-04-03T11:21:07;10.60;;;1.57;;
75823;SDS011;64457;51.976;9.834;2023-04-03T11:23:41;5.10;;;1.27;;
75823;SDS011;64457;51.976;9.834;2023-04-03T11:26:10;6.60;;;1.60;;
75823;SDS011;64457;51.976;9.834;2023-04-03T11:28:41;5.80;;;1.40;;
75823;SDS011;64457;51.976;9.834;2023-04-03T11:31:12;6.70;;;1.30;;
75823;SDS011;64457;51.976;9.834;2023-04-03T11:33:55;4.90;;;1.17;;
75823;SDS011;64457;51.976;9.834;2023-04-03T11:36:34;7.17;;;1.90;;
75823;SDS011;64457;51.976;9.834;2023-04-03T11:39:10;6.60;;;1.80;;
75823;SDS011;64457;51.976;9.834;2023-04-03T11:41:50;5.50;;;1.30;;
75823;SDS011;64457;51.976;9.834;2023-04-03T11:47:04;5.90;;;1.30;;
75823;SDS011;64457;51.976;9.834;2023-04-03T11:55:41;10.10;;;1.90;;
75823;SDS011;64457;51.976;9.834;2023-04-03T11:58:21;6.33;;;1.40;;
75823;SDS011;64457;51.976;9.834;2023-04-03T12:00:56;4.33;;;1.20;;
75823;SDS011;64457;51.976;9.834;2023-04-03T12:12:56;7.37;;;1.80;;
75823;SDS011;64457;51.976;9.834;2023-04-03T12:24:43;8.63;;;1.60;;
75823;SDS011;64457;51.976;9.834;2023-04-03T12:27:16;7.20;;;1.80;;
75823;SDS011;64457;51.976;9.834;2023-04-03T12:29:53;7.07;;;1.63;;
75823;SDS011;64457;51.976;9.834;2023-04-03T12:32:37;7.73;;;2.00;;
75823;SDS011;64457;51.976;9.834;2023-04-03T12:35:21;5.63;;;1.20;;
75823;SDS011;64457;51.976;9.834;2023-04-03T12:38:14;5.07;;;1.40;;
75823;SDS011;64457;51.976;9.834;2023-04-03T12:41:27;5.23;;;1.23;;
75823;SDS011;64457;51.976;9.834;2023-04-03T12:44:08;6.87;;;1.83;;
75823;SDS011;64457;51.976;9.834;2023-04-03T12:47:00;7.27;;;1.70;;
75823;SDS011;64457;51.976;9.834;2023-04-03T12:49:35;5.30;;;1.30;;
75823;SDS011;64457;51.976;9.834;2023-04-03T12:52:16;4.87;;;1.40;;
75823;SDS011;64457;51.976;9.834;2023-04-03T12:54:50;6.47;;;1.30;;
75823;SDS011;64457;51.976;9.834;2023-04-03T12:57:19;6.53;;;1.60;;
75823;SDS011;64457;51.976;9.834;2023-04-03T12:59:48;6.00;;;1.57;;
75823;SDS011;64457;51.976;9.834;2023-04-03T13:02:20;6.50;;;1.50;;
75823;SDS011;64457;51.976;9.834;2023-04-03T13:04:51;6.93;;;1.70;;
75823;SDS011;64457;51.976;9.834;2023-04-03T13:07:23;6.67;;;1.40;;
75823;SDS011;64457;51.976;9.834;2023-04-03T13:09:59;6.37;;;1.80;;
75823;SDS011;64457;51.976;9.834;2023-04-03T13:12:48;5.30;;;1.60;;
75823;SDS011;64457;51.976;9.834;2023-04-03T13:15:19;7.67;;;1.60;;
75823;SDS011;64457;51.976;9.834;2023-04-03T13:17:50;4.87;;;1.40;;
75823;SDS011;64457;51.976;9.834;2023-04-03T13:20:21;6.50;;;1.60;;
75823;SDS011;64457;51.976;9.834;2023-04-03T13:22:59;5.63;;;1.60;;
75823;SDS011;64457;51.976;9.834;2023-04-03T13:25:31;5.57;;;1.70;;
75823;SDS011;64457;51.976;9.834;2023-04-03T13:28:05;7.97;;;1.43;;
75823;SDS011;64457;51.976;9.834;2023-04-03T13:30:36;5.50;;;1.30;;
75823;SDS011;64457;51.976;9.834;2023-04-03T13:33:17;9.50;;;1.60;;
75823;SDS011;64457;51.976;9.834;2023-04-03T13:35:48;7.57;;;2.03;;
75823;SDS011;64457;51.976;9.834;2023-04-03T13:38:26;6.17;;;1.70;;
75823;SDS011;64457;51.976;9.834;2023-04-03T13:40:58;6.20;;;1.90;;
75823;SDS011;64457;51.976;9.834;2023-04-03T13:43:30;6.33;;;1.70;;
75823;SDS011;64457;51.976;9.834;2023-04-03T13:46:05;5.50;;;1.60;;
75823;SDS011;64457;51.976;9.834;2023-04-03T13:48:52;5.60;;;1.20;;
75823;SDS011;64457;51.976;9.834;2023-04-03T13:51:22;5.10;;;1.10;;
75823;SDS011;64457;51.976;9.834;2023-04-03T13:53:54;8.53;;;1.50;;
75823;SDS011;64457;51.976;9.834;2023-04-03T13:56:26;5.33;;;1.40;;
75823;SDS011;64457;51.976;9.834;2023-04-03T13:59:02;4.47;;;1.13;;
75823;SDS011;64457;51.976;9.834;2023-04-03T14:01:47;6.20;;;1.40;;
75823;SDS011;64457;51.976;9.834;2023-04-03T14:04:20;5.47;;;1.37;;
75823;SDS011;64457;51.976;9.834;2023-04-03T14:06:49;5.13;;;1.20;;
75823;SDS011;64457;51.976;9.834;2023-04-03T14:09:19;5.30;;;1.23;;
75823;SDS011;64457;51.976;9.834;2023-04-03T14:11:49;7.67;;;1.60;;
75823;SDS011;64457;51.976;9.834;2023-04-03T14:14:21;6.63;;;1.60;;
75823;SDS011;64457;51.976;9.834;2023-04-03T14:16:55;7.43;;;1.60;;
75823;SDS011;64457;51.976;9.834;2023-04-03T14:19:25;5.60;;;1.53;;
75823;SDS011;64457;51.976;9.834;2023-04-03T14:21:55;5.50;;;1.23;;
75823;SDS011;64457;51.976;9.834;2023-04-03T14:24:28;5.97;;;1.30;;
75823;SDS011;64457;51.976;9.834;2023-04-03T14:26:56;5.60;;;1.43;;
75823;SDS011;64457;51.976;9.834;2023-04-03T14:29:24;6.23;;;1.60;;
75823;SDS011;64457;51.976;9.834;2023-04-03T14:31:52;7.57;;;1.80;;
75823;SDS011;64457;51.976;9.834;2023-04-03T14:34:20;7.60;;;1.60;;
75823;SDS011;64457;51.976;9.834;2023-04-03T14:36:48;9.13;;;3.00;;
75823;SDS011;64457;51.976;9.834;2023-04-03T14:39:20;6.87;;;1.90;;
75823;SDS011;64457;51.976;9.834;2023-04-03T14:41:49;6.67;;;2.10;;
75823;SDS011;64457;51.976;9.834;2023-04-03T14:44:19;8.10;;;1.60;;
75823;SDS011;64457;51.976;9.834;2023-04-03T14:46:48;6.23;;;1.67;;
75823;SDS011;64457;51.976;9.834;2023-04-03T14:49:17;5.93;;;1.50;;
75823;SDS011;64457;51.976;9.834;2023-04-03T14:51:48;4.50;;;1.40;;
75823;SDS011;64457;51.976;9.834;2023-04-03T14:54:16;6.13;;;1.33;;
75823;SDS011;64457;51.976;9.834;2023-04-03T14:56:52;4.90;;;1.20;;
75823;SDS011;64457;51.976;9.834;2023-04-03T14:59:20;6.17;;;1.70;;
75823;SDS011;64457;51.976;9.834;2023-04-03T15:01:49;9.13;;;1.40;;
75823;SDS011;64457;51.976;9.834;2023-04-03T15:04:18;4.20;;;1.00;;
75823;SDS011;64457;51.976;9.834;2023-04-03T15:06:47;5.80;;;1.50;;
75823;SDS011;64457;51.976;9.834;2023-04-03T15:09:20;7.73;;;2.10;;
75823;SDS011;64457;51.976;9.834;2023-04-03T15:11:52;8.20;;;2.20;;
75823;SDS011;64457;51.976;9.834;2023-04-03T15:14:21;5.10;;;1.40;;
75823;SDS011;64457;51.976;9.834;2023-04-03T15:16:50;6.10;;;1.50;;
75823;SDS011;64457;51.976;9.834;2023-04-03T15:19:17;4.70;;;1.23;;
75823;SDS011;64457;51.976;9.834;2023-04-03T15:21:46;9.40;;;1.57;;
75823;SDS011;64457;51.976;9.834;2023-04-03T15:24:14;7.00;;;1.80;;
75823;SDS011;64457;51.976;9.834;2023-04-03T15:26:41;7.40;;;1.80;;
75823;SDS011;64457;51.976;9.834;2023-04-03T15:29:11;7.10;;;1.77;;
75823;SDS011;64457;51.976;9.834;2023-04-03T15:31:39;7.40;;;1.80;;
75823;SDS011;64457;51.976;9.834;2023-04-03T15:34:06;6.70;;;1.50;;
75823;SDS011;64457;51.976;9.834;2023-04-03T15:36:34;5.47;;;1.80;;
75823;SDS011;64457;51.976;9.834;2023-04-03T15:39:02;7.40;;;1.70;;
75823;SDS011;64457;51.976;9.834;2023-04-03T15:41:31;6.23;;;1.57;;
75823;SDS011;64457;51.976;9.834;2023-04-03T15:43:59;7.07;;;1.50;;
75823;SDS011;64457;51.976;9.834;2023-04-03T15:46:28;7.30;;;2.13;;
75823;SDS011;64457;51.976;9.834;2023-04-03T15:48:56;7.60;;;1.50;;